Airport View

Enter AWOS ICAO identifier for current METAR.

ex. KFNL

KCKM 051355Z AUTO 00000KT 10SM 23/19 A3008 RMK A01

5 Aug 2020 13:50

Frequency: 120.675

Phone: 662-624-9777

Other Area AWOS: KUTA - KPMU - KRNV - KUOX

TAF KMEM 051120Z 0512/0618 05005KT P6SM FEW070 FM051600 02008KT P6SM SCT045 FM060200 04005KT P6SM FEW250